Bob Sikes Airport Crestview US
ICAO: KCEW
IATA: CEW
Category: Medium
Scheduled Services: No

Elevation: 213 ft
TransAlt. 18000 ft.

Airport Communications:
EGLIN APP/DEP:124.05
ASOS:119.275
GAINESVILLE RDO:122
CTAF/UNICOM:122.95

KCEW Zoom In..

If you have problems with the map follow the link
https://www.worldairports.se/pages/airport.php?
ICAO=KCEW

Runways:

(A) RW 17 length 8004 ft width 150 ft
ILS 111.90 / hdg 171

(B) RW 35 length 8004 ft width 150 ft
---- / hdg 351

Location; KCEW
Day. 14 / Time. 10.53 Zulu
* Altimeter: 30.23
* Temperature: 08° c. 46.4°f.
* Wind from: 010° Speed 06 kn.
Dewpoint: 07° c.
Visibility: 10 Statute Miles.
Clouds: Overcast 500 ft.

KCEW 141053Z AUTO 01006KT 10SM OVC005 08/07 A3023 RMK AO2 RAB38E47 SLP235 P0002 T00830072


Wind From 010°
Speed 06 kn.

 
 
jpsmedia.com for Web Design worldairports.se 2018   terms of use